Castledawson, United Kingdom
Current Conditions -  °F | °C
As of 4:20 PM on Wednesday 26 Nov 2014 (Local Time) from EGAA Reporting Station
Broken Clouds Broken Clouds  
Wind Chill: 45°   Ceiling: 4600
Heat Index: 45°   Visibility: 6mi
Dew Point: 43°   Wind: 2mph
Humidity: 93%   Direction: 70°ENE
Pressure: 29.85"   Gusts: NA
Location:  54.78°N, 6.56°W
Report Text: EGAA 261620Z 07002KT 9000 FEW010 SCT038 BKN046 07/06 Q1011
Loading
Personal Weather Stations






























Interactive Weather Map New forecast layout! Learn more

10-Day Weather Forecast

Advertisements
Track Severe Weather on mobile